createdAt,value
2018-04-26T00:00:12.698Z,100481.70
2018-04-26T00:03:15.243Z,100481.77
2018-04-26T00:06:17.743Z,100483.59
2018-04-26T00:09:20.266Z,100488.35
2018-04-26T00:12:22.811Z,100483.63
2018-04-26T00:15:25.343Z,100471.61
2018-04-26T00:18:27.873Z,100468.73
2018-04-26T00:21:30.402Z,100469.86
2018-04-26T00:24:32.947Z,100465.59
2018-04-26T00:27:35.478Z,100465.84
2018-04-26T00:30:38.059Z,100455.97
2018-04-26T00:33:40.582Z,100459.50
2018-04-26T00:36:43.101Z,100460.45
2018-04-26T00:39:45.625Z,100461.81
2018-04-26T00:42:48.159Z,100464.84
2018-04-26T00:45:52.766Z,100470.38
2018-04-26T00:48:55.336Z,100470.53
2018-04-26T00:52:01.872Z,100472.95
2018-04-26T00:55:04.432Z,100472.11
2018-04-26T00:58:07.042Z,100470.44
2018-04-26T01:01:09.651Z,100478.00
2018-04-26T01:04:12.251Z,100475.77
2018-04-26T01:07:14.832Z,100474.57
2018-04-26T01:10:17.401Z,100472.27
2018-04-26T01:13:20.872Z,100474.58
2018-04-26T01:16:23.383Z,100472.35
2018-04-26T01:19:25.915Z,100470.30
2018-04-26T01:22:28.498Z,100463.83
2018-04-26T01:25:31.073Z,100483.36
2018-04-26T01:28:33.640Z,100482.66
2018-04-26T01:31:36.221Z,100484.05
2018-04-26T01:34:38.895Z,100490.83
2018-04-26T01:37:48.095Z,100487.89
2018-04-26T01:40:50.689Z,100484.23
2018-04-26T01:43:53.296Z,100477.77
2018-04-26T01:46:55.850Z,100481.09
2018-04-26T01:49:58.572Z,100479.40
2018-04-26T01:53:01.179Z,100474.00
2018-04-26T01:56:03.698Z,100481.39
2018-04-26T01:59:06.265Z,100483.53
2018-04-26T02:02:08.841Z,100488.38
2018-04-26T02:05:11.440Z,100490.00
2018-04-26T02:08:14.007Z,100486.66
2018-04-26T02:11:16.542Z,100489.19
2018-04-26T02:14:19.131Z,100491.23
2018-04-26T02:17:21.714Z,100496.23
2018-04-26T02:20:24.705Z,100492.33
2018-04-26T02:23:27.375Z,100485.38
2018-04-26T02:26:29.968Z,100488.92
2018-04-26T02:29:36.196Z,100486.69
2018-04-26T02:32:38.754Z,100494.91
2018-04-26T02:35:41.335Z,100492.78
2018-04-26T02:38:43.933Z,100488.91
2018-04-26T02:41:46.476Z,100496.63
2018-04-26T02:44:49.090Z,100494.43
2018-04-26T02:47:51.599Z,100491.59
2018-04-26T02:50:54.129Z,100487.66
2018-04-26T02:53:56.662Z,100486.42
2018-04-26T02:56:59.204Z,100483.91
2018-04-26T03:00:01.823Z,100481.31
2018-04-26T03:03:04.427Z,100482.88
2018-04-26T03:06:08.079Z,100483.54
2018-04-26T03:09:10.656Z,100489.67
2018-04-26T03:12:13.297Z,100487.98
2018-04-26T03:15:15.929Z,100490.55
2018-04-26T03:18:19.577Z,100490.25
2018-04-26T03:21:22.169Z,100487.67
2018-04-26T03:24:24.813Z,100479.80
2018-04-26T03:27:27.433Z,100482.25
2018-04-26T03:30:30.041Z,100484.66
2018-04-26T03:33:32.649Z,100480.55
2018-04-26T03:36:35.295Z,100479.30
2018-04-26T03:39:37.913Z,100472.80
2018-04-26T03:42:40.558Z,100472.64
2018-04-26T03:45:44.449Z,100478.55
2018-04-26T03:48:48.183Z,100477.89
2018-04-26T03:51:50.762Z,100479.36
2018-04-26T03:54:55.750Z,100469.12
2018-04-26T03:57:59.477Z,100472.80
2018-04-26T04:01:13.758Z,100466.66
2018-04-26T04:04:29.291Z,100466.77
2018-04-26T04:07:32.903Z,100470.80
2018-04-26T04:10:36.118Z,100466.77
2018-04-26T04:13:38.695Z,100468.59
2018-04-26T04:16:42.094Z,100472.08
2018-04-26T04:19:46.588Z,100471.19
2018-04-26T04:22:49.197Z,100484.44
2018-04-26T04:25:51.775Z,100478.98
2018-04-26T04:28:54.347Z,100482.77
2018-04-26T04:31:56.883Z,100478.78
2018-04-26T04:34:59.383Z,100480.61
2018-04-26T04:38:01.909Z,100480.11
2018-04-26T04:41:04.415Z,100483.39
2018-04-26T04:44:06.962Z,100481.84
2018-04-26T04:47:09.465Z,100476.92
2018-04-26T04:50:11.968Z,100476.94
2018-04-26T04:53:14.483Z,100476.53
2018-04-26T04:56:16.980Z,100481.27
2018-04-26T04:59:19.522Z,100485.38
2018-04-26T05:02:22.016Z,100483.02
2018-04-26T05:05:24.512Z,100482.30
2018-04-26T05:08:27.124Z,100479.56
2018-04-26T05:11:29.670Z,100482.13
2018-04-26T05:14:32.226Z,100491.52
2018-04-26T05:17:34.899Z,100482.13
2018-04-26T05:20:37.401Z,100481.99
2018-04-26T05:23:39.926Z,100475.46
2018-04-26T05:26:42.474Z,100481.75
2018-04-26T05:29:45.053Z,100483.86
2018-04-26T05:32:47.578Z,100484.66
2018-04-26T05:35:50.098Z,100489.53
2018-04-26T05:38:52.651Z,100498.92
2018-04-26T05:41:55.168Z,100511.42
2018-04-26T05:44:57.717Z,100521.06
2018-04-26T05:48:00.291Z,100523.12
2018-04-26T05:51:02.810Z,100509.11
2018-04-26T05:54:06.333Z,100512.06
2018-04-26T05:57:08.839Z,100512.20
2018-04-26T06:00:11.507Z,100513.08
2018-04-26T06:03:14.021Z,100520.21
2018-04-26T06:06:21.254Z,100517.70
2018-04-26T06:09:23.805Z,100508.45
2018-04-26T06:12:27.045Z,100515.81
2018-04-26T06:15:29.550Z,100512.38
2018-04-26T06:18:32.108Z,100522.19
2018-04-26T06:21:34.617Z,100514.74
2018-04-26T06:24:37.128Z,100511.91
2018-04-26T06:27:39.666Z,100523.17
2018-04-26T06:30:42.171Z,100525.27
2018-04-26T06:33:44.736Z,100524.17
2018-04-26T06:36:47.309Z,100515.52
2018-04-26T06:39:49.750Z,100522.67
2018-04-26T06:42:52.391Z,100519.47
2018-04-26T06:45:55.034Z,100518.64
2018-04-26T06:48:57.714Z,100521.34
2018-04-26T06:52:01.155Z,100519.75
2018-04-26T06:55:03.674Z,100524.20
2018-04-26T06:58:06.234Z,100524.36
2018-04-26T07:01:08.755Z,100526.25
2018-04-26T07:04:11.315Z,100527.48
2018-04-26T07:07:13.816Z,100529.97
2018-04-26T07:10:16.375Z,100528.11
2018-04-26T07:13:18.887Z,100523.41
2018-04-26T07:16:21.538Z,100528.98
2018-04-26T07:19:24.080Z,100516.39
2018-04-26T07:22:27.118Z,100533.13
2018-04-26T07:25:30.211Z,100529.63
2018-04-26T07:53:58.854Z,100516.75
2018-04-26T07:57:01.442Z,100507.89
2018-04-26T08:00:03.969Z,100504.89
2018-04-26T08:03:06.475Z,100503.23
2018-04-26T08:06:09.027Z,100491.66
2018-04-26T08:09:11.524Z,100493.78
2018-04-26T08:12:14.033Z,100499.97
2018-04-26T08:22:13.044Z,100493.05
2018-04-26T08:25:17.513Z,100495.13
2018-04-26T08:28:20.026Z,100489.62
2018-04-26T08:31:22.883Z,100498.63
2018-04-26T08:34:25.419Z,100483.14
2018-04-26T08:37:28.613Z,100469.25
2018-04-26T08:40:31.211Z,100474.45
2018-04-26T08:43:33.745Z,100462.86
2018-04-26T08:46:36.283Z,100469.39
2018-04-26T08:49:38.807Z,100479.44
2018-04-26T08:52:41.383Z,100480.44
2018-04-26T08:55:43.971Z,100499.80
2018-04-26T08:58:46.552Z,100500.95
2018-04-26T09:01:49.146Z,100508.00
2018-04-26T09:04:51.767Z,100506.62
2018-04-26T09:07:54.313Z,100504.89
2018-04-26T09:10:56.882Z,100503.30
2018-04-26T09:13:59.566Z,100508.47
2018-04-26T09:17:02.096Z,100512.38
2018-04-26T09:20:04.701Z,100524.16
2018-04-26T09:23:07.236Z,100547.86
2018-04-26T09:26:09.766Z,100567.06
2018-04-26T09:29:12.264Z,100605.38
2018-04-26T09:32:14.770Z,100587.59
2018-04-26T09:35:17.306Z,100603.43
2018-04-26T09:38:19.818Z,100586.45
2018-04-26T09:41:22.385Z,100600.49
2018-04-26T09:44:24.921Z,100590.02
2018-04-26T09:47:27.441Z,100604.89
2018-04-26T09:50:29.974Z,100600.84
2018-04-26T09:53:32.476Z,100611.08
2018-04-26T09:56:34.998Z,100619.39
2018-04-26T09:59:37.509Z,100622.22
2018-04-26T10:02:45.933Z,100599.87
2018-04-26T10:05:54.174Z,100602.31
2018-04-26T10:08:56.695Z,100598.13
2018-04-26T10:11:59.219Z,100593.55
2018-04-26T10:15:01.821Z,100600.59
2018-04-26T10:18:04.298Z,100593.06
2018-04-26T10:21:06.863Z,100591.82
2018-04-26T10:24:09.355Z,100609.89
2018-04-26T10:27:12.047Z,100595.02
2018-04-26T10:30:15.277Z,100589.95
2018-04-26T10:33:17.876Z,100584.36
2018-04-26T10:36:21.021Z,100583.26
2018-04-26T10:39:23.647Z,100580.16
2018-04-26T10:42:26.186Z,100581.09
2018-04-26T10:45:28.756Z,100585.54
2018-04-26T10:48:31.273Z,100579.02
2018-04-26T10:51:33.836Z,100578.66
2018-04-26T10:54:36.403Z,100572.77
2018-04-26T10:57:38.940Z,100573.82
2018-04-26T11:00:41.540Z,100580.03
2018-04-26T11:03:44.080Z,100574.23
2018-04-26T11:06:47.363Z,100573.27
2018-04-26T11:09:50.144Z,100563.76
2018-04-26T11:12:52.751Z,100577.97
2018-04-26T11:15:55.374Z,100583.23
2018-04-26T11:19:01.052Z,100570.59
2018-04-26T11:22:03.744Z,100579.63
2018-04-26T11:25:06.361Z,100565.41
2018-04-26T11:28:08.972Z,100582.00
2018-04-26T11:31:12.828Z,100577.62
2018-04-26T11:34:16.579Z,100560.03
2018-04-26T11:37:19.589Z,100568.52
2018-04-26T11:40:22.210Z,100576.09
2018-04-26T11:43:24.852Z,100580.08
2018-04-26T11:46:27.359Z,100579.30
2018-04-26T11:49:29.871Z,100572.33
2018-04-26T11:52:32.470Z,100572.91
2018-04-26T11:55:34.898Z,100580.36
2018-04-26T11:58:37.455Z,100574.20
2018-04-26T12:01:40.333Z,100573.50
2018-04-26T12:04:42.958Z,100580.89
2018-04-26T12:07:45.795Z,100583.08
2018-04-26T12:10:48.443Z,100590.16
2018-04-26T12:13:51.057Z,100576.47
2018-04-26T12:16:53.662Z,100592.48
2018-04-26T12:19:56.208Z,100591.23
2018-04-26T12:22:58.703Z,100579.44
2018-04-26T12:29:41.665Z,100605.69
2018-04-26T12:32:44.275Z,100615.19
2018-04-26T12:35:46.831Z,100633.66
2018-04-26T12:38:49.340Z,100627.06
2018-04-26T12:41:51.887Z,100627.79
2018-04-26T12:44:54.932Z,100629.52
2018-04-26T12:47:58.892Z,100628.66
2018-04-26T12:51:02.174Z,100633.95
2018-04-26T12:54:05.608Z,100633.84
2018-04-26T12:57:12.979Z,100633.42
2018-04-26T13:00:15.789Z,100630.37
2018-04-26T13:03:18.956Z,100639.31
2018-04-26T13:06:21.796Z,100634.52
2018-04-26T13:09:25.253Z,100643.67
2018-04-26T13:12:27.806Z,100653.23
2018-04-26T13:15:31.749Z,100658.70
2018-04-26T13:18:34.349Z,100672.27
2018-04-26T13:21:36.917Z,100692.02
2018-04-26T13:24:39.486Z,100710.84
2018-04-26T13:27:42.961Z,100726.05
2018-04-26T13:30:46.432Z,100712.69
2018-04-26T13:33:49.535Z,100704.31
2018-04-26T13:36:52.063Z,100696.33
2018-04-26T13:39:54.624Z,100688.79
2018-04-26T13:42:57.240Z,100684.90
2018-04-26T13:45:59.878Z,100687.03
2018-04-26T13:49:02.421Z,100681.28
2018-04-26T13:52:05.071Z,100679.16
2018-04-26T13:55:07.722Z,100680.47
2018-04-26T13:58:16.260Z,100674.71
2018-04-26T14:01:18.835Z,100670.55
2018-04-26T14:04:21.425Z,100666.52
2018-04-26T14:07:24.027Z,100667.55
2018-04-26T14:10:26.590Z,100661.88
2018-04-26T14:13:29.145Z,100656.28
2018-04-26T14:16:31.763Z,100657.67
2018-04-26T14:19:34.292Z,100669.31
2018-04-26T14:22:36.844Z,100661.42
2018-04-26T14:25:39.408Z,100654.91
2018-04-26T14:28:41.987Z,100654.41
2018-04-26T14:31:44.561Z,100661.69
2018-04-26T14:34:47.149Z,100653.71
2018-04-26T14:37:49.669Z,100663.63
2018-04-26T14:40:52.180Z,100659.23
2018-04-26T14:43:54.725Z,100664.05
2018-04-26T14:46:57.291Z,100656.88
2018-04-26T14:49:59.861Z,100654.80
2018-04-26T14:53:02.437Z,100657.03
2018-04-26T14:56:05.018Z,100665.23
2018-04-26T14:59:09.200Z,100655.41
2018-04-26T15:02:11.780Z,100657.09
2018-04-26T15:05:14.885Z,100658.92
2018-04-26T15:08:17.534Z,100662.77
2018-04-26T15:11:20.527Z,100668.88
2018-04-26T16:09:03.656Z,100744.73
2018-04-26T16:12:26.536Z,100746.48
2018-04-26T16:15:41.308Z,100765.23
2018-04-26T16:18:54.857Z,100772.12
2018-04-26T16:22:14.969Z,100774.48
2018-04-26T16:29:17.082Z,100778.96
2018-04-26T16:32:36.598Z,100783.36
2018-04-26T16:35:51.061Z,100785.27
2018-04-26T16:39:15.451Z,100781.36
2018-04-26T16:42:17.955Z,100789.13
2018-04-26T16:45:21.422Z,100800.25
2018-04-26T16:48:24.004Z,100794.11
2018-04-26T16:51:26.669Z,100799.66
2018-04-26T16:54:29.281Z,100807.67
2018-04-26T16:57:31.912Z,100809.41
2018-04-26T17:00:34.843Z,100812.48
2018-04-26T17:03:37.612Z,100819.95
2018-04-26T17:06:40.271Z,100817.86
2018-04-26T17:09:43.065Z,100825.80
2018-04-26T17:12:45.646Z,100814.53
2018-04-26T17:15:48.191Z,100810.53
2018-04-26T17:18:50.855Z,100828.84
2018-04-26T17:21:53.662Z,100822.16
2018-04-26T17:24:56.366Z,100820.41
2018-04-26T17:27:59.013Z,100817.83
2018-04-26T17:31:01.718Z,100817.49
2018-04-26T17:34:04.476Z,100822.67
2018-04-26T17:37:09.074Z,100823.30
2018-04-26T17:40:11.678Z,100819.37
2018-04-26T17:43:20.577Z,100824.61
2018-04-26T17:46:23.280Z,100837.77
2018-04-26T17:49:25.971Z,100833.55
2018-04-26T17:52:28.849Z,100840.16
2018-04-26T17:55:31.684Z,100839.13
2018-04-26T17:58:34.438Z,100850.95
2018-04-26T18:01:37.335Z,100847.97
2018-04-26T18:04:40.091Z,100853.80
2018-04-26T18:07:42.790Z,100854.17
2018-04-26T18:10:45.593Z,100861.29
2018-04-26T18:13:48.303Z,100868.39
2018-04-26T18:16:51.019Z,100875.17
2018-04-26T18:20:01.040Z,100875.89
2018-04-26T18:22:56.384Z,100876.20
2018-04-26T18:25:59.155Z,100878.13
2018-04-26T18:29:01.827Z,100884.27
2018-04-26T18:32:04.870Z,100883.61
2018-04-26T18:35:07.449Z,100889.98
2018-04-26T18:38:10.439Z,100895.95
2018-04-26T18:41:13.054Z,100900.25
2018-04-26T18:44:15.876Z,100895.49
2018-04-26T18:47:18.786Z,100899.31
2018-04-26T18:50:21.559Z,100908.01
2018-04-26T18:53:24.817Z,100900.37
2018-04-26T18:56:27.556Z,100904.48
2018-04-26T18:59:30.360Z,100906.22
2018-04-26T19:02:33.229Z,100910.88
2018-04-26T19:05:36.094Z,100913.69
2018-04-26T19:08:39.199Z,100918.48
2018-04-26T19:11:41.898Z,100924.92
2018-04-26T19:14:44.521Z,100918.70
2018-04-26T19:17:47.324Z,100923.61
2018-04-26T19:20:50.707Z,100933.22
2018-04-26T19:23:53.387Z,100944.19
2018-04-26T19:26:56.018Z,100948.39
2018-04-26T19:29:58.749Z,100946.05
2018-04-26T19:33:01.775Z,100953.06
2018-04-26T19:36:04.493Z,100957.63
2018-04-26T19:39:07.233Z,100953.00
2018-04-26T19:42:09.935Z,100957.02
2018-04-26T19:45:12.635Z,100962.61
2018-04-26T19:48:15.228Z,100972.25
2018-04-26T19:51:17.817Z,100971.70
2018-04-26T19:54:20.660Z,100969.58
2018-04-26T19:57:23.396Z,100973.04
2018-04-26T20:00:26.076Z,100973.94
2018-04-26T20:03:28.778Z,100973.58
2018-04-26T20:06:31.412Z,100976.32
2018-04-26T20:09:34.058Z,100978.95
2018-04-26T20:12:36.730Z,100981.34
2018-04-26T20:15:39.352Z,100975.13
2018-04-26T20:18:41.919Z,100976.73
2018-04-26T20:21:44.477Z,100981.18
2018-04-26T20:24:47.184Z,100986.94
2018-04-26T20:27:49.836Z,100996.28
2018-04-26T20:30:52.459Z,100996.59
2018-04-26T20:33:55.009Z,101000.14
2018-04-26T20:36:57.573Z,100992.92
2018-04-26T20:40:00.250Z,100993.16
2018-04-26T20:43:02.878Z,100994.02
2018-04-26T20:46:05.519Z,100990.02
2018-04-26T20:49:08.143Z,100997.83
2018-04-26T20:52:10.703Z,100991.89
2018-04-26T20:55:13.252Z,100993.36
2018-04-26T20:58:15.799Z,100993.81
2018-04-26T21:01:18.411Z,100997.97
2018-04-26T21:04:20.917Z,101001.81
2018-04-26T21:07:23.469Z,100999.57
2018-04-26T21:10:26.099Z,100998.84
2018-04-26T21:13:28.632Z,100995.78
2018-04-26T21:16:31.199Z,100994.25
2018-04-26T21:19:33.814Z,100999.69
2018-04-26T21:22:36.322Z,100997.64
2018-04-26T21:25:38.874Z,100999.67
2018-04-26T21:28:41.488Z,100993.99
2018-04-26T21:31:44.004Z,101005.02
2018-04-26T21:34:46.574Z,101005.19
2018-04-26T21:37:49.205Z,101005.92
2018-04-26T21:40:51.710Z,100999.93
2018-04-26T21:43:54.278Z,101001.39
2018-04-26T21:46:56.824Z,101003.55
2018-04-26T21:50:04.899Z,101009.63
2018-04-26T21:53:13.010Z,101017.05
2018-04-26T21:56:21.200Z,101020.94
2018-04-26T21:59:29.222Z,101013.95
2018-04-26T22:02:31.179Z,101012.97
2018-04-26T22:05:35.100Z,101017.14
2018-04-26T22:08:37.646Z,101025.45
2018-04-26T22:11:40.687Z,101029.75
2018-04-26T22:14:43.219Z,101026.33
2018-04-26T22:17:45.708Z,101027.84
2018-04-26T22:20:48.193Z,101024.84
2018-04-26T22:23:50.700Z,101022.94
2018-04-26T22:26:53.237Z,101027.17
2018-04-26T22:29:55.827Z,101032.78
2018-04-26T22:32:58.372Z,101030.77
2018-04-26T22:36:00.858Z,101032.30
2018-04-26T22:39:03.394Z,101044.63
2018-04-26T22:42:05.925Z,101045.14
2018-04-26T22:45:08.472Z,101043.99
2018-04-26T22:48:10.997Z,101040.91
2018-04-26T22:51:13.512Z,101039.19
2018-04-26T22:54:16.051Z,101029.80
2018-04-26T22:57:18.573Z,101030.88
2018-04-26T23:00:21.103Z,101031.72
2018-04-26T23:03:23.571Z,101032.72
2018-04-26T23:06:26.076Z,101038.98
2018-04-26T23:09:28.571Z,101032.36
2018-04-26T23:12:31.090Z,101024.19
2018-04-26T23:15:33.612Z,101030.87
2018-04-26T23:18:36.154Z,101036.92
2018-04-26T23:21:38.684Z,101026.94
2018-04-26T23:24:41.218Z,101026.60
2018-04-26T23:27:43.735Z,101034.39
2018-04-26T23:30:46.243Z,101036.72
2018-04-26T23:33:48.770Z,101049.50
2018-04-26T23:36:51.299Z,101054.37
2018-04-26T23:39:53.802Z,101062.02
2018-04-26T23:42:56.311Z,101056.36
2018-04-26T23:45:58.830Z,101056.84
2018-04-26T23:49:01.341Z,101053.81
2018-04-26T23:52:03.845Z,101049.25
2018-04-26T23:55:06.375Z,101048.20
2018-04-26T23:58:08.886Z,101058.75
